sensor_id;sensor_type;location;lat;lon;timestamp;P1;durP1;ratioP1;P2;durP2;ratioP2
41629;SDS011;27322;49.488;8.480;2022-08-21T00:01:46;6.68;;;2.92;;
41629;SDS011;27322;49.488;8.480;2022-08-21T00:04:12;6.63;;;2.53;;
41629;SDS011;27322;49.488;8.480;2022-08-21T00:06:38;4.95;;;2.22;;
41629;SDS011;27322;49.488;8.480;2022-08-21T00:09:04;6.38;;;2.50;;
41629;SDS011;27322;49.488;8.480;2022-08-21T00:11:32;7.10;;;2.80;;
41629;SDS011;27322;49.488;8.480;2022-08-21T00:13:58;8.27;;;3.13;;
41629;SDS011;27322;49.488;8.480;2022-08-21T00:16:23;6.85;;;3.05;;
41629;SDS011;27322;49.488;8.480;2022-08-21T00:18:49;6.80;;;2.83;;
41629;SDS011;27322;49.488;8.480;2022-08-21T00:21:15;5.47;;;2.47;;
41629;SDS011;27322;49.488;8.480;2022-08-21T00:23:41;7.72;;;2.60;;
41629;SDS011;27322;49.488;8.480;2022-08-21T00:26:07;5.05;;;2.50;;
41629;SDS011;27322;49.488;8.480;2022-08-21T00:28:32;6.53;;;3.17;;
41629;SDS011;27322;49.488;8.480;2022-08-21T00:30:58;7.75;;;2.78;;
41629;SDS011;27322;49.488;8.480;2022-08-21T00:33:24;8.15;;;3.00;;
41629;SDS011;27322;49.488;8.480;2022-08-21T00:35:51;8.05;;;2.90;;
41629;SDS011;27322;49.488;8.480;2022-08-21T00:38:17;7.05;;;3.03;;
41629;SDS011;27322;49.488;8.480;2022-08-21T00:43:15;6.35;;;2.80;;
41629;SDS011;27322;49.488;8.480;2022-08-21T00:45:43;7.45;;;3.75;;
41629;SDS011;27322;49.488;8.480;2022-08-21T00:48:09;7.70;;;3.30;;
41629;SDS011;27322;49.488;8.480;2022-08-21T00:50:38;9.32;;;2.90;;
41629;SDS011;27322;49.488;8.480;2022-08-21T00:53:07;6.45;;;2.70;;
41629;SDS011;27322;49.488;8.480;2022-08-21T00:55:35;7.18;;;2.90;;
41629;SDS011;27322;49.488;8.480;2022-08-21T00:58:02;7.35;;;3.10;;
41629;SDS011;27322;49.488;8.480;2022-08-21T01:00:31;7.40;;;2.92;;
41629;SDS011;27322;49.488;8.480;2022-08-21T01:03:00;7.05;;;2.70;;
41629;SDS011;27322;49.488;8.480;2022-08-21T01:05:29;6.00;;;2.63;;
41629;SDS011;27322;49.488;8.480;2022-08-21T01:07:55;5.97;;;2.80;;
41629;SDS011;27322;49.488;8.480;2022-08-21T01:10:22;7.47;;;3.00;;
41629;SDS011;27322;49.488;8.480;2022-08-21T01:12:48;6.93;;;3.00;;
41629;SDS011;27322;49.488;8.480;2022-08-21T01:15:16;6.18;;;2.90;;
41629;SDS011;27322;49.488;8.480;2022-08-21T01:17:44;8.05;;;3.20;;
41629;SDS011;27322;49.488;8.480;2022-08-21T01:20:10;7.70;;;3.35;;
41629;SDS011;27322;49.488;8.480;2022-08-21T01:22:37;6.95;;;2.95;;
41629;SDS011;27322;49.488;8.480;2022-08-21T01:25:08;5.75;;;2.85;;
41629;SDS011;27322;49.488;8.480;2022-08-21T01:27:35;6.63;;;3.13;;
41629;SDS011;27322;49.488;8.480;2022-08-21T01:30:05;9.02;;;3.38;;
41629;SDS011;27322;49.488;8.480;2022-08-21T01:32:35;7.50;;;2.97;;
41629;SDS011;27322;49.488;8.480;2022-08-21T01:35:02;8.45;;;2.95;;
41629;SDS011;27322;49.488;8.480;2022-08-21T01:37:29;7.38;;;3.17;;
41629;SDS011;27322;49.488;8.480;2022-08-21T01:39:55;5.75;;;2.72;;
41629;SDS011;27322;49.488;8.480;2022-08-21T01:42:21;9.80;;;3.20;;
41629;SDS011;27322;49.488;8.480;2022-08-21T01:44:46;8.43;;;3.35;;
41629;SDS011;27322;49.488;8.480;2022-08-21T01:47:13;5.95;;;3.08;;
41629;SDS011;27322;49.488;8.480;2022-08-21T01:49:40;7.05;;;3.35;;
41629;SDS011;27322;49.488;8.480;2022-08-21T01:52:06;8.50;;;3.28;;
41629;SDS011;27322;49.488;8.480;2022-08-21T01:54:32;7.43;;;2.80;;
41629;SDS011;27322;49.488;8.480;2022-08-21T01:56:58;7.88;;;3.35;;
41629;SDS011;27322;49.488;8.480;2022-08-21T01:59:25;6.97;;;3.00;;
41629;SDS011;27322;49.488;8.480;2022-08-21T02:01:52;6.72;;;2.97;;
41629;SDS011;27322;49.488;8.480;2022-08-21T02:04:19;8.90;;;3.00;;
41629;SDS011;27322;49.488;8.480;2022-08-21T02:06:45;9.57;;;2.95;;
41629;SDS011;27322;49.488;8.480;2022-08-21T02:09:12;8.30;;;3.53;;
41629;SDS011;27322;49.488;8.480;2022-08-21T02:11:39;6.53;;;3.33;;
41629;SDS011;27322;49.488;8.480;2022-08-21T02:14:06;10.02;;;3.65;;
41629;SDS011;27322;49.488;8.480;2022-08-21T02:16:38;9.75;;;3.63;;
41629;SDS011;27322;49.488;8.480;2022-08-21T02:19:04;11.50;;;3.70;;
41629;SDS011;27322;49.488;8.480;2022-08-21T02:21:30;7.97;;;3.40;;
41629;SDS011;27322;49.488;8.480;2022-08-21T02:23:56;8.68;;;3.25;;
41629;SDS011;27322;49.488;8.480;2022-08-21T02:26:21;8.95;;;3.40;;
41629;SDS011;27322;49.488;8.480;2022-08-21T02:28:47;8.07;;;3.25;;
41629;SDS011;27322;49.488;8.480;2022-08-21T02:31:13;7.82;;;3.25;;
41629;SDS011;27322;49.488;8.480;2022-08-21T02:33:39;7.72;;;3.85;;
41629;SDS011;27322;49.488;8.480;2022-08-21T02:36:05;8.70;;;3.40;;
41629;SDS011;27322;49.488;8.480;2022-08-21T02:38:32;8.25;;;3.70;;
41629;SDS011;27322;49.488;8.480;2022-08-21T02:40:59;7.47;;;3.70;;
41629;SDS011;27322;49.488;8.480;2022-08-21T02:43:26;8.63;;;3.75;;
41629;SDS011;27322;49.488;8.480;2022-08-21T02:45:53;6.90;;;3.13;;
41629;SDS011;27322;49.488;8.480;2022-08-21T02:48:21;7.88;;;3.72;;
41629;SDS011;27322;49.488;8.480;2022-08-21T02:50:55;7.65;;;4.05;;
41629;SDS011;27322;49.488;8.480;2022-08-21T02:53:22;7.45;;;3.50;;
41629;SDS011;27322;49.488;8.480;2022-08-21T02:55:50;8.75;;;3.85;;
41629;SDS011;27322;49.488;8.480;2022-08-21T02:58:17;9.13;;;3.60;;
41629;SDS011;27322;49.488;8.480;2022-08-21T03:00:49;9.52;;;3.80;;
41629;SDS011;27322;49.488;8.480;2022-08-21T03:03:15;7.97;;;3.70;;
41629;SDS011;27322;49.488;8.480;2022-08-21T03:05:41;8.32;;;3.97;;
41629;SDS011;27322;49.488;8.480;2022-08-21T03:08:08;7.18;;;3.55;;
41629;SDS011;27322;49.488;8.480;2022-08-21T03:10:37;8.77;;;3.72;;
41629;SDS011;27322;49.488;8.480;2022-08-21T03:13:05;8.55;;;3.90;;
41629;SDS011;27322;49.488;8.480;2022-08-21T03:15:31;8.27;;;3.72;;
41629;SDS011;27322;49.488;8.480;2022-08-21T03:17:57;8.10;;;3.63;;
41629;SDS011;27322;49.488;8.480;2022-08-21T03:20:24;7.90;;;3.45;;
41629;SDS011;27322;49.488;8.480;2022-08-21T03:22:52;7.65;;;3.45;;
41629;SDS011;27322;49.488;8.480;2022-08-21T03:25:19;10.98;;;3.90;;
41629;SDS011;27322;49.488;8.480;2022-08-21T03:27:45;9.98;;;3.33;;
41629;SDS011;27322;49.488;8.480;2022-08-21T03:30:13;7.22;;;3.40;;
41629;SDS011;27322;49.488;8.480;2022-08-21T03:32:39;7.32;;;3.35;;
41629;SDS011;27322;49.488;8.480;2022-08-21T03:35:06;9.48;;;3.67;;
41629;SDS011;27322;49.488;8.480;2022-08-21T03:37:33;6.78;;;3.45;;
41629;SDS011;27322;49.488;8.480;2022-08-21T03:39:59;10.35;;;3.35;;
41629;SDS011;27322;49.488;8.480;2022-08-21T03:42:25;6.05;;;2.97;;
41629;SDS011;27322;49.488;8.480;2022-08-21T03:44:50;6.45;;;3.00;;
41629;SDS011;27322;49.488;8.480;2022-08-21T03:47:16;7.93;;;3.00;;
41629;SDS011;27322;49.488;8.480;2022-08-21T03:49:42;13.65;;;3.63;;
41629;SDS011;27322;49.488;8.480;2022-08-21T03:52:08;7.55;;;3.50;;
41629;SDS011;27322;49.488;8.480;2022-08-21T03:54:33;7.45;;;2.75;;
41629;SDS011;27322;49.488;8.480;2022-08-21T03:56:59;6.13;;;2.90;;
41629;SDS011;27322;49.488;8.480;2022-08-21T03:59:25;7.85;;;2.80;;
41629;SDS011;27322;49.488;8.480;2022-08-21T04:01:52;7.20;;;2.72;;
41629;SDS011;27322;49.488;8.480;2022-08-21T04:04:23;7.78;;;3.10;;
41629;SDS011;27322;49.488;8.480;2022-08-21T04:06:49;8.02;;;3.05;;
41629;SDS011;27322;49.488;8.480;2022-08-21T04:09:16;7.20;;;3.25;;
41629;SDS011;27322;49.488;8.480;2022-08-21T04:11:42;8.43;;;3.45;;
41629;SDS011;27322;49.488;8.480;2022-08-21T04:14:07;8.38;;;3.33;;
41629;SDS011;27322;49.488;8.480;2022-08-21T04:16:34;8.20;;;3.70;;
41629;SDS011;27322;49.488;8.480;2022-08-21T04:19:00;11.48;;;3.53;;
41629;SDS011;27322;49.488;8.480;2022-08-21T04:21:26;6.95;;;3.55;;
41629;SDS011;27322;49.488;8.480;2022-08-21T04:23:54;6.35;;;3.50;;
41629;SDS011;27322;49.488;8.480;2022-08-21T04:26:19;8.52;;;3.78;;
41629;SDS011;27322;49.488;8.480;2022-08-21T04:28:45;9.27;;;3.53;;
41629;SDS011;27322;49.488;8.480;2022-08-21T04:31:11;10.27;;;4.00;;
41629;SDS011;27322;49.488;8.480;2022-08-21T04:33:37;7.45;;;3.40;;
41629;SDS011;27322;49.488;8.480;2022-08-21T04:36:03;10.57;;;3.70;;
41629;SDS011;27322;49.488;8.480;2022-08-21T04:38:29;7.57;;;3.63;;
41629;SDS011;27322;49.488;8.480;2022-08-21T04:40:56;8.50;;;3.20;;
41629;SDS011;27322;49.488;8.480;2022-08-21T04:43:22;6.18;;;3.30;;
41629;SDS011;27322;49.488;8.480;2022-08-21T04:45:48;7.38;;;3.83;;
41629;SDS011;27322;49.488;8.480;2022-08-21T04:48:16;9.77;;;4.00;;
41629;SDS011;27322;49.488;8.480;2022-08-21T04:56:14;6.30;;;3.30;;
41629;SDS011;27322;49.488;8.480;2022-08-21T04:58:45;8.10;;;3.65;;
41629;SDS011;27322;49.488;8.480;2022-08-21T05:01:14;9.55;;;3.38;;
41629;SDS011;27322;49.488;8.480;2022-08-21T05:03:43;7.70;;;3.40;;
41629;SDS011;27322;49.488;8.480;2022-08-21T05:06:12;8.43;;;3.63;;
41629;SDS011;27322;49.488;8.480;2022-08-21T05:08:39;6.90;;;3.55;;
41629;SDS011;27322;49.488;8.480;2022-08-21T05:11:08;9.70;;;3.72;;
41629;SDS011;27322;49.488;8.480;2022-08-21T05:13:34;7.60;;;3.42;;
41629;SDS011;27322;49.488;8.480;2022-08-21T05:16:00;9.90;;;3.85;;
41629;SDS011;27322;49.488;8.480;2022-08-21T05:18:26;8.20;;;3.65;;
41629;SDS011;27322;49.488;8.480;2022-08-21T05:20:52;9.40;;;3.55;;
41629;SDS011;27322;49.488;8.480;2022-08-21T05:23:18;7.07;;;3.50;;
41629;SDS011;27322;49.488;8.480;2022-08-21T05:25:43;9.13;;;3.53;;
41629;SDS011;27322;49.488;8.480;2022-08-21T05:28:09;6.38;;;3.30;;
41629;SDS011;27322;49.488;8.480;2022-08-21T05:30:36;6.72;;;3.75;;
41629;SDS011;27322;49.488;8.480;2022-08-21T05:33:02;8.65;;;4.40;;
41629;SDS011;27322;49.488;8.480;2022-08-21T05:35:29;10.50;;;3.88;;
41629;SDS011;27322;49.488;8.480;2022-08-21T05:37:57;8.98;;;4.45;;
41629;SDS011;27322;49.488;8.480;2022-08-21T05:40:23;9.15;;;4.00;;
41629;SDS011;27322;49.488;8.480;2022-08-21T05:42:49;8.20;;;4.30;;
41629;SDS011;27322;49.488;8.480;2022-08-21T05:45:16;7.35;;;4.15;;
41629;SDS011;27322;49.488;8.480;2022-08-21T05:47:42;9.20;;;4.32;;
41629;SDS011;27322;49.488;8.480;2022-08-21T05:50:07;8.27;;;4.18;;
41629;SDS011;27322;49.488;8.480;2022-08-21T05:52:33;8.93;;;3.97;;
41629;SDS011;27322;49.488;8.480;2022-08-21T05:54:59;8.73;;;4.28;;
41629;SDS011;27322;49.488;8.480;2022-08-21T05:57:24;8.68;;;4.50;;
41629;SDS011;27322;49.488;8.480;2022-08-21T05:59:51;8.27;;;4.25;;
41629;SDS011;27322;49.488;8.480;2022-08-21T06:02:17;11.88;;;4.68;;
41629;SDS011;27322;49.488;8.480;2022-08-21T06:04:44;10.32;;;4.63;;
41629;SDS011;27322;49.488;8.480;2022-08-21T06:07:09;10.43;;;4.03;;
41629;SDS011;27322;49.488;8.480;2022-08-21T06:09:36;8.18;;;4.00;;
41629;SDS011;27322;49.488;8.480;2022-08-21T06:12:10;9.85;;;3.97;;
41629;SDS011;27322;49.488;8.480;2022-08-21T06:14:37;8.13;;;3.90;;
41629;SDS011;27322;49.488;8.480;2022-08-21T06:17:04;9.95;;;4.57;;
41629;SDS011;27322;49.488;8.480;2022-08-21T06:19:31;10.60;;;4.55;;
41629;SDS011;27322;49.488;8.480;2022-08-21T06:21:57;8.60;;;4.13;;
41629;SDS011;27322;49.488;8.480;2022-08-21T06:24:24;9.02;;;3.95;;
41629;SDS011;27322;49.488;8.480;2022-08-21T06:26:50;7.28;;;3.47;;
41629;SDS011;27322;49.488;8.480;2022-08-21T06:29:17;7.95;;;3.67;;
41629;SDS011;27322;49.488;8.480;2022-08-21T06:31:43;9.73;;;3.67;;
41629;SDS011;27322;49.488;8.480;2022-08-21T06:34:09;7.35;;;3.50;;
41629;SDS011;27322;49.488;8.480;2022-08-21T06:36:35;11.40;;;3.90;;
41629;SDS011;27322;49.488;8.480;2022-08-21T06:39:02;6.10;;;2.90;;
41629;SDS011;27322;49.488;8.480;2022-08-21T06:41:28;8.95;;;3.70;;
41629;SDS011;27322;49.488;8.480;2022-08-21T06:43:54;8.60;;;3.03;;
41629;SDS011;27322;49.488;8.480;2022-08-21T06:46:20;7.35;;;3.63;;
41629;SDS011;27322;49.488;8.480;2022-08-21T06:48:47;9.38;;;3.90;;
41629;SDS011;27322;49.488;8.480;2022-08-21T06:51:12;8.65;;;3.78;;
41629;SDS011;27322;49.488;8.480;2022-08-21T06:53:38;9.73;;;3.38;;
41629;SDS011;27322;49.488;8.480;2022-08-21T06:56:04;7.30;;;3.35;;
41629;SDS011;27322;49.488;8.480;2022-08-21T06:58:30;8.80;;;3.50;;
41629;SDS011;27322;49.488;8.480;2022-08-21T07:00:56;7.18;;;3.20;;
41629;SDS011;27322;49.488;8.480;2022-08-21T07:06:01;13.65;;;4.00;;
41629;SDS011;27322;49.488;8.480;2022-08-21T07:08:27;10.23;;;3.33;;
41629;SDS011;27322;49.488;8.480;2022-08-21T07:10:54;11.40;;;3.55;;
41629;SDS011;27322;49.488;8.480;2022-08-21T07:13:22;7.97;;;3.60;;
41629;SDS011;27322;49.488;8.480;2022-08-21T07:15:48;8.52;;;3.38;;
41629;SDS011;27322;49.488;8.480;2022-08-21T07:18:14;7.60;;;3.47;;
41629;SDS011;27322;49.488;8.480;2022-08-21T07:20:40;9.13;;;3.45;;
41629;SDS011;27322;49.488;8.480;2022-08-21T07:23:16;8.90;;;3.35;;
41629;SDS011;27322;49.488;8.480;2022-08-21T07:25:51;9.90;;;4.13;;
41629;SDS011;27322;49.488;8.480;2022-08-21T07:28:16;10.55;;;4.32;;
41629;SDS011;27322;49.488;8.480;2022-08-21T07:30:42;7.82;;;3.28;;
41629;SDS011;27322;49.488;8.480;2022-08-21T07:33:08;10.90;;;3.47;;
41629;SDS011;27322;49.488;8.480;2022-08-21T07:35:33;6.55;;;3.00;;
41629;SDS011;27322;49.488;8.480;2022-08-21T07:38:02;9.18;;;3.53;;
41629;SDS011;27322;49.488;8.480;2022-08-21T07:40:28;6.90;;;2.97;;
41629;SDS011;27322;49.488;8.480;2022-08-21T07:42:53;7.97;;;3.58;;
41629;SDS011;27322;49.488;8.480;2022-08-21T07:45:20;12.38;;;4.20;;
41629;SDS011;27322;49.488;8.480;2022-08-21T07:47:47;8.65;;;3.88;;
41629;SDS011;27322;49.488;8.480;2022-08-21T07:50:13;9.25;;;3.67;;
41629;SDS011;27322;49.488;8.480;2022-08-21T07:52:40;7.82;;;3.28;;
41629;SDS011;27322;49.488;8.480;2022-08-21T07:55:07;6.93;;;3.45;;
41629;SDS011;27322;49.488;8.480;2022-08-21T07:57:35;10.52;;;4.05;;
41629;SDS011;27322;49.488;8.480;2022-08-21T08:00:03;7.53;;;3.95;;
41629;SDS011;27322;49.488;8.480;2022-08-21T08:02:30;9.65;;;4.03;;
41629;SDS011;27322;49.488;8.480;2022-08-21T08:05:00;11.15;;;3.80;;
41629;SDS011;27322;49.488;8.480;2022-08-21T08:07:27;8.55;;;4.28;;
41629;SDS011;27322;49.488;8.480;2022-08-21T08:09:52;8.05;;;3.90;;
41629;SDS011;27322;49.488;8.480;2022-08-21T08:12:18;9.32;;;4.25;;
41629;SDS011;27322;49.488;8.480;2022-08-21T08:14:45;9.30;;;3.85;;
41629;SDS011;27322;49.488;8.480;2022-08-21T08:17:11;9.13;;;3.70;;
41629;SDS011;27322;49.488;8.480;2022-08-21T08:19:38;10.25;;;3.97;;
41629;SDS011;27322;49.488;8.480;2022-08-21T08:22:16;10.60;;;3.90;;
41629;SDS011;27322;49.488;8.480;2022-08-21T08:24:44;9.40;;;3.78;;
41629;SDS011;27322;49.488;8.480;2022-08-21T08:27:11;7.82;;;4.00;;
41629;SDS011;27322;49.488;8.480;2022-08-21T08:29:37;8.38;;;4.25;;
41629;SDS011;27322;49.488;8.480;2022-08-21T08:32:03;8.32;;;3.58;;
41629;SDS011;27322;49.488;8.480;2022-08-21T08:34:30;11.73;;;4.53;;
41629;SDS011;27322;49.488;8.480;2022-08-21T08:36:56;7.60;;;3.95;;
41629;SDS011;27322;49.488;8.480;2022-08-21T08:39:23;7.85;;;4.00;;
41629;SDS011;27322;49.488;8.480;2022-08-21T08:41:51;9.43;;;3.80;;
41629;SDS011;27322;49.488;8.480;2022-08-21T08:44:23;8.68;;;4.20;;
41629;SDS011;27322;49.488;8.480;2022-08-21T08:46:49;7.28;;;4.00;;
41629;SDS011;27322;49.488;8.480;2022-08-21T08:49:20;8.65;;;3.70;;
41629;SDS011;27322;49.488;8.480;2022-08-21T08:54:31;8.18;;;3.70;;
41629;SDS011;27322;49.488;8.480;2022-08-21T08:57:02;14.45;;;4.53;;
41629;SDS011;27322;49.488;8.480;2022-08-21T08:59:36;9.10;;;4.45;;
41629;SDS011;27322;49.488;8.480;2022-08-21T09:02:05;8.63;;;3.92;;
41629;SDS011;27322;49.488;8.480;2022-08-21T09:04:34;9.02;;;4.45;;
41629;SDS011;27322;49.488;8.480;2022-08-21T09:15:45;9.35;;;4.47;;
41629;SDS011;27322;49.488;8.480;2022-08-21T09:18:36;7.55;;;3.97;;
41629;SDS011;27322;49.488;8.480;2022-08-21T09:21:46;12.13;;;4.22;;
41629;SDS011;27322;49.488;8.480;2022-08-21T09:29:13;8.38;;;3.97;;
41629;SDS011;27322;49.488;8.480;2022-08-21T09:31:45;10.10;;;3.40;;
41629;SDS011;27322;49.488;8.480;2022-08-21T09:34:11;12.98;;;4.28;;
41629;SDS011;27322;49.488;8.480;2022-08-21T09:36:45;9.38;;;3.88;;
41629;SDS011;27322;49.488;8.480;2022-08-21T09:39:22;7.40;;;3.35;;
41629;SDS011;27322;49.488;8.480;2022-08-21T09:42:07;7.60;;;2.83;;
41629;SDS011;27322;49.488;8.480;2022-08-21T09:44:35;7.28;;;2.95;;
41629;SDS011;27322;49.488;8.480;2022-08-21T09:47:05;6.22;;;2.72;;
41629;SDS011;27322;49.488;8.480;2022-08-21T09:49:32;6.65;;;2.72;;
41629;SDS011;27322;49.488;8.480;2022-08-21T09:52:00;8.15;;;2.67;;
41629;SDS011;27322;49.488;8.480;2022-08-21T09:54:30;7.38;;;2.65;;
41629;SDS011;27322;49.488;8.480;2022-08-21T09:56:59;6.25;;;2.00;;
41629;SDS011;27322;49.488;8.480;2022-08-21T09:59:54;5.32;;;2.03;;
41629;SDS011;27322;49.488;8.480;2022-08-21T10:04:57;8.15;;;2.05;;
41629;SDS011;27322;49.488;8.480;2022-08-21T10:07:27;4.53;;;1.73;;
41629;SDS011;27322;49.488;8.480;2022-08-21T10:10:06;6.78;;;1.65;;
41629;SDS011;27322;49.488;8.480;2022-08-21T10:18:27;7.05;;;1.70;;
41629;SDS011;27322;49.488;8.480;2022-08-21T10:21:04;4.63;;;2.03;;
41629;SDS011;27322;49.488;8.480;2022-08-21T10:28:51;5.45;;;1.58;;
41629;SDS011;27322;49.488;8.480;2022-08-21T10:34:17;6.28;;;1.80;;
41629;SDS011;27322;49.488;8.480;2022-08-21T10:37:01;4.57;;;1.70;;
41629;SDS011;27322;49.488;8.480;2022-08-21T10:39:41;5.20;;;1.75;;
41629;SDS011;27322;49.488;8.480;2022-08-21T10:48:01;4.97;;;1.92;;
41629;SDS011;27322;49.488;8.480;2022-08-21T10:58:38;4.07;;;1.52;;
41629;SDS011;27322;49.488;8.480;2022-08-21T11:01:31;4.55;;;1.45;;
41629;SDS011;27322;49.488;8.480;2022-08-21T11:06:45;5.13;;;1.65;;
41629;SDS011;27322;49.488;8.480;2022-08-21T11:09:16;5.97;;;1.70;;
41629;SDS011;27322;49.488;8.480;2022-08-21T11:11:50;6.05;;;1.60;;
41629;SDS011;27322;49.488;8.480;2022-08-21T11:17:11;4.63;;;1.50;;
41629;SDS011;27322;49.488;8.480;2022-08-21T11:19:48;6.55;;;1.40;;
41629;SDS011;27322;49.488;8.480;2022-08-21T11:30:45;5.63;;;1.80;;
41629;SDS011;27322;49.488;8.480;2022-08-21T11:40:19;3.38;;;1.42;;
41629;SDS011;27322;49.488;8.480;2022-08-21T11:47:15;5.60;;;1.60;;
41629;SDS011;27322;49.488;8.480;2022-08-21T11:49:54;4.05;;;1.50;;
41629;SDS011;27322;49.488;8.480;2022-08-21T11:52:27;5.60;;;2.00;;
41629;SDS011;27322;49.488;8.480;2022-08-21T11:55:19;3.70;;;1.40;;
41629;SDS011;27322;49.488;8.480;2022-08-21T12:00:26;4.78;;;1.73;;
41629;SDS011;27322;49.488;8.480;2022-08-21T12:03:06;4.60;;;1.80;;
41629;SDS011;27322;49.488;8.480;2022-08-21T12:05:37;5.25;;;1.80;;
41629;SDS011;27322;49.488;8.480;2022-08-21T12:08:26;4.68;;;1.60;;
41629;SDS011;27322;49.488;8.480;2022-08-21T12:11:02;5.47;;;1.77;;
41629;SDS011;27322;49.488;8.480;2022-08-21T12:13:31;3.30;;;1.48;;
41629;SDS011;27322;49.488;8.480;2022-08-21T12:16:07;4.70;;;1.40;;
41629;SDS011;27322;49.488;8.480;2022-08-21T12:18:38;3.45;;;1.48;;
41629;SDS011;27322;49.488;8.480;2022-08-21T12:21:26;4.78;;;1.70;;
41629;SDS011;27322;49.488;8.480;2022-08-21T12:26:51;4.30;;;1.48;;
41629;SDS011;27322;49.488;8.480;2022-08-21T12:29:36;4.95;;;1.65;;
41629;SDS011;27322;49.488;8.480;2022-08-21T12:32:04;4.47;;;1.58;;
41629;SDS011;27322;49.488;8.480;2022-08-21T12:35:14;4.50;;;1.42;;
41629;SDS011;27322;49.488;8.480;2022-08-21T12:37:44;5.97;;;1.80;;
41629;SDS011;27322;49.488;8.480;2022-08-21T12:40:18;4.20;;;1.77;;
41629;SDS011;27322;49.488;8.480;2022-08-21T12:42:53;4.78;;;1.73;;
41629;SDS011;27322;49.488;8.480;2022-08-21T12:45:36;4.88;;;1.70;;
41629;SDS011;27322;49.488;8.480;2022-08-21T12:50:40;4.80;;;1.98;;
41629;SDS011;27322;49.488;8.480;2022-08-21T12:55:44;5.85;;;1.65;;
41629;SDS011;27322;49.488;8.480;2022-08-21T12:58:19;6.07;;;1.65;;
41629;SDS011;27322;49.488;8.480;2022-08-21T13:00:54;4.18;;;1.40;;
41629;SDS011;27322;49.488;8.480;2022-08-21T13:03:33;3.97;;;1.40;;
41629;SDS011;27322;49.488;8.480;2022-08-21T13:06:02;4.05;;;1.50;;
41629;SDS011;27322;49.488;8.480;2022-08-21T13:08:29;3.70;;;1.40;;
41629;SDS011;27322;49.488;8.480;2022-08-21T13:11:02;4.65;;;1.30;;
41629;SDS011;27322;49.488;8.480;2022-08-21T13:13:30;3.88;;;1.48;;
41629;SDS011;27322;49.488;8.480;2022-08-21T13:15:58;5.75;;;1.67;;
41629;SDS011;27322;49.488;8.480;2022-08-21T13:18:26;5.47;;;1.83;;
41629;SDS011;27322;49.488;8.480;2022-08-21T13:21:02;3.50;;;1.50;;
41629;SDS011;27322;49.488;8.480;2022-08-21T13:23:30;4.82;;;1.75;;
41629;SDS011;27322;49.488;8.480;2022-08-21T13:25:57;7.78;;;1.70;;
41629;SDS011;27322;49.488;8.480;2022-08-21T13:28:22;4.63;;;1.65;;
41629;SDS011;27322;49.488;8.480;2022-08-21T13:30:58;4.47;;;1.60;;
41629;SDS011;27322;49.488;8.480;2022-08-21T13:33:26;5.43;;;1.58;;
41629;SDS011;27322;49.488;8.480;2022-08-21T13:38:31;6.20;;;1.40;;
41629;SDS011;27322;49.488;8.480;2022-08-21T13:41:01;5.80;;;1.65;;
41629;SDS011;27322;49.488;8.480;2022-08-21T13:44:02;4.43;;;1.30;;
41629;SDS011;27322;49.488;8.480;2022-08-21T13:46:32;5.75;;;1.30;;
41629;SDS011;27322;49.488;8.480;2022-08-21T13:49:01;6.07;;;1.52;;
41629;SDS011;27322;49.488;8.480;2022-08-21T13:51:29;3.83;;;1.30;;
41629;SDS011;27322;49.488;8.480;2022-08-21T13:53:56;6.72;;;1.42;;
41629;SDS011;27322;49.488;8.480;2022-08-21T13:56:26;3.55;;;1.25;;
41629;SDS011;27322;49.488;8.480;2022-08-21T13:58:54;4.50;;;1.42;;
41629;SDS011;27322;49.488;8.480;2022-08-21T14:01:23;4.10;;;1.40;;
41629;SDS011;27322;49.488;8.480;2022-08-21T14:04:02;4.10;;;1.42;;
41629;SDS011;27322;49.488;8.480;2022-08-21T14:06:44;3.05;;;1.20;;
41629;SDS011;27322;49.488;8.480;2022-08-21T14:09:32;4.20;;;1.20;;
41629;SDS011;27322;49.488;8.480;2022-08-21T14:12:00;4.53;;;1.40;;
41629;SDS011;27322;49.488;8.480;2022-08-21T14:14:35;3.05;;;1.10;;
41629;SDS011;27322;49.488;8.480;2022-08-21T14:17:05;3.20;;;1.30;;
41629;SDS011;27322;49.488;8.480;2022-08-21T14:32:52;4.95;;;1.50;;
41629;SDS011;27322;49.488;8.480;2022-08-21T14:35:18;3.33;;;1.20;;
41629;SDS011;27322;49.488;8.480;2022-08-21T14:37:46;5.45;;;1.60;;
41629;SDS011;27322;49.488;8.480;2022-08-21T14:40:12;3.45;;;1.58;;
41629;SDS011;27322;49.488;8.480;2022-08-21T14:42:40;5.55;;;1.30;;
41629;SDS011;27322;49.488;8.480;2022-08-21T14:45:49;4.13;;;1.45;;
41629;SDS011;27322;49.488;8.480;2022-08-21T14:47:56;3.88;;;1.58;;
41629;SDS011;27322;49.488;8.480;2022-08-21T14:50:23;3.70;;;1.20;;
41629;SDS011;27322;49.488;8.480;2022-08-21T14:52:49;3.25;;;1.15;;
41629;SDS011;27322;49.488;8.480;2022-08-21T14:55:15;5.93;;;1.40;;
41629;SDS011;27322;49.488;8.480;2022-08-21T14:57:50;5.30;;;1.25;;
41629;SDS011;27322;49.488;8.480;2022-08-21T15:00:20;3.72;;;1.20;;
41629;SDS011;27322;49.488;8.480;2022-08-21T15:02:48;3.13;;;1.10;;
41629;SDS011;27322;49.488;8.480;2022-08-21T15:05:14;4.18;;;1.48;;
41629;SDS011;27322;49.488;8.480;2022-08-21T15:07:40;4.18;;;1.20;;
41629;SDS011;27322;49.488;8.480;2022-08-21T15:10:06;5.05;;;1.52;;
41629;SDS011;27322;49.488;8.480;2022-08-21T15:12:32;5.95;;;1.60;;
41629;SDS011;27322;49.488;8.480;2022-08-21T15:14:58;4.60;;;1.30;;
41629;SDS011;27322;49.488;8.480;2022-08-21T15:17:24;4.57;;;1.40;;
41629;SDS011;27322;49.488;8.480;2022-08-21T15:19:50;4.03;;;1.10;;
41629;SDS011;27322;49.488;8.480;2022-08-21T15:22:15;5.03;;;1.30;;
41629;SDS011;27322;49.488;8.480;2022-08-21T15:24:41;3.85;;;1.40;;
41629;SDS011;27322;49.488;8.480;2022-08-21T15:27:07;3.63;;;1.50;;
41629;SDS011;27322;49.488;8.480;2022-08-21T15:29:35;5.03;;;1.27;;
41629;SDS011;27322;49.488;8.480;2022-08-21T15:32:02;5.47;;;1.50;;
41629;SDS011;27322;49.488;8.480;2022-08-21T15:34:48;2.80;;;1.25;;
41629;SDS011;27322;49.488;8.480;2022-08-21T15:37:15;3.20;;;1.23;;
41629;SDS011;27322;49.488;8.480;2022-08-21T15:39:41;3.88;;;1.40;;
41629;SDS011;27322;49.488;8.480;2022-08-21T15:42:06;3.35;;;1.30;;
41629;SDS011;27322;49.488;8.480;2022-08-21T15:44:33;3.10;;;1.20;;
41629;SDS011;27322;49.488;8.480;2022-08-21T15:46:59;2.97;;;1.25;;
41629;SDS011;27322;49.488;8.480;2022-08-21T15:49:24;3.20;;;1.33;;
41629;SDS011;27322;49.488;8.480;2022-08-21T15:51:50;4.22;;;1.50;;
41629;SDS011;27322;49.488;8.480;2022-08-21T15:54:16;3.63;;;1.33;;
41629;SDS011;27322;49.488;8.480;2022-08-21T15:56:43;4.47;;;1.30;;
41629;SDS011;27322;49.488;8.480;2022-08-21T15:59:13;4.45;;;1.50;;
41629;SDS011;27322;49.488;8.480;2022-08-21T16:01:41;4.95;;;1.77;;
41629;SDS011;27322;49.488;8.480;2022-08-21T16:04:08;3.10;;;1.20;;
41629;SDS011;27322;49.488;8.480;2022-08-21T16:06:34;4.10;;;1.17;;
41629;SDS011;27322;49.488;8.480;2022-08-21T16:09:00;2.90;;;1.30;;
41629;SDS011;27322;49.488;8.480;2022-08-21T16:11:26;4.53;;;1.50;;
41629;SDS011;27322;49.488;8.480;2022-08-21T16:13:52;4.72;;;1.60;;
41629;SDS011;27322;49.488;8.480;2022-08-21T16:16:20;4.90;;;1.38;;
41629;SDS011;27322;49.488;8.480;2022-08-21T16:18:48;3.35;;;1.45;;
41629;SDS011;27322;49.488;8.480;2022-08-21T16:21:15;4.68;;;1.33;;
41629;SDS011;27322;49.488;8.480;2022-08-21T16:23:42;3.90;;;1.55;;
41629;SDS011;27322;49.488;8.480;2022-08-21T16:26:08;4.53;;;1.30;;
41629;SDS011;27322;49.488;8.480;2022-08-21T16:28:38;5.43;;;1.42;;
41629;SDS011;27322;49.488;8.480;2022-08-21T16:31:05;3.13;;;1.20;;
41629;SDS011;27322;49.488;8.480;2022-08-21T16:33:39;4.35;;;1.60;;
41629;SDS011;27322;49.488;8.480;2022-08-21T16:36:11;4.32;;;1.55;;
41629;SDS011;27322;49.488;8.480;2022-08-21T16:38:37;4.05;;;1.40;;
41629;SDS011;27322;49.488;8.480;2022-08-21T16:41:06;3.97;;;1.55;;
41629;SDS011;27322;49.488;8.480;2022-08-21T16:43:34;4.60;;;1.40;;
41629;SDS011;27322;49.488;8.480;2022-08-21T16:46:00;5.38;;;1.38;;